Погода Ошакатина 2 недели

Очикото, Намибия

21 февраля-05 марта
  • 21февраля
    Сегодня
    +24°
    +38°
    Ясно и безоблачно
    ВремяПогодаТемператураВлажностьДавлениеВетер, м/сВероятность осадков
    02:00Ясно и безоблачно+26°C49 %671 мм2.3 м/с5 %
    05:00Ясно и безоблачно+24°C63 %671 мм1.1 м/с5 %
    08:00Ясно и безоблачно+25°C56 %672 мм2.6 м/с5 %
    11:00Ясно и безоблачно+33°C29 %674 мм1.8 м/с5 %
    14:00Ясно и безоблачно+37°C21 %672 мм4.5 м/с5 %
    17:00Ясно и безоблачно+38°C19 %670 мм4.7 м/с5 %
    20:00Практически безоблачно+33°C23 %670 мм1.8 м/с5 %
    23:00Ясно и безоблачно+30°C27 %670 мм3.2 м/с5 %
  • 22февраля
    Четверг
    +23°
    +39°
    Небольшая облачность
    ВремяПогодаТемператураВлажностьДавлениеВетер, м/сВероятность осадков
    02:00Практически безоблачно+26°C34 %669 мм3.1 м/с5 %
    05:00Небольшая облачность+25°C45 %669 мм1.8 м/с5 %
    08:00Ясно и безоблачно+25°C44 %670 мм1.0 м/с5 %
    11:00Ясно и безоблачно+35°C20 %672 мм3.9 м/с5 %
    14:00Небольшая облачность+39°C14 %671 мм3.4 м/с5 %
    17:00Пасмурно, сплошная облачность+38°C14 %669 мм4.5 м/с5 %
    20:00Ясно и безоблачно+34°C18 %669 мм3.3 м/с5 %
    23:00Ясно и безоблачно+31°C23 %669 мм4.0 м/с3 %
  • 23февраля
    Пятница
    +23°
    +40°
    Практически безоблачно
    ВремяПогодаТемператураВлажностьДавлениеВетер, м/сВероятность осадков
    02:00Облачно с прояснениями+27°C31 %669 мм2.5 м/с3 %
    05:00Практически безоблачно+25°C35 %669 мм2.8 м/с5 %
    08:00Ясно и безоблачно+25°C34 %670 мм3.1 м/с5 %
    11:00Ясно и безоблачно+34°C21 %672 мм1.7 м/с5 %
    14:00Практически безоблачно+39°C13 %671 мм3.9 м/с5 %
    17:00Ясно и безоблачно+39°C13 %669 мм3.3 м/с3 %
    20:00Практически безоблачно+35°C17 %669 мм1.1 м/с6 %
    23:00Облачно с прояснениями+31°C20 %670 мм4.9 м/с13 %
  • 24февраля
    Суббота
    +22°
    +38°
    Ясно и безоблачно
    ВремяПогодаТемператураВлажностьДавлениеВетер, м/сВероятность осадков
    02:00Практически безоблачно+28°C22 %670 мм5.2 м/с5 %
    05:00Ясно и безоблачно+24°C18 %670 мм5.1 м/с3 %
    08:00Ясно и безоблачно+24°C19 %671 мм3.7 м/с5 %
    11:00Ясно и безоблачно+32°C15 %673 мм3.7 м/с5 %
    14:00Ясно и безоблачно+37°C12 %671 мм1.3 м/с5 %
    17:00Ясно и безоблачно+38°C11 %670 мм1.7 м/с5 %
    20:00Ясно и безоблачно+34°C12 %669 мм3.2 м/с5 %
    23:00Облачно с прояснениями+31°C18 %671 мм3.0 м/с8 %
  • 25февраля
    Воскресенье
    +23°
    +39°
    Ясно и безоблачно
    ВремяПогодаТемператураВлажностьДавлениеВетер, м/сВероятность осадков
    02:00Ясно и безоблачно+26°C24 %671 мм6.6 м/с6 %
    05:00Ясно и безоблачно+23°C24 %671 мм3.9 м/с4 %
    08:00Ясно и безоблачно+23°C22 %671 мм3.8 м/с5 %
    11:00Ясно и безоблачно+32°C13 %673 мм4.3 м/с5 %
    14:00Ясно и безоблачно+38°C12 %672 мм2.3 м/с5 %
    17:00Практически безоблачно+38°C10 %670 мм2.8 м/с4 %
    20:00Практически безоблачно+34°C15 %669 мм1.5 м/с3 %
    23:00Ясно и безоблачно+30°C16 %671 мм8.1 м/с14 %
Мы используем cookies
Соглашаюсь